Time;durP1;ratioP1;P1;durP2;ratioP2;P2;SDS_P1;SDS_P2;PMS_P1;PMS_P2;Temp;Humidity;BMP_temperature;BMP_pressure;BME280_temperature;BME280_humidity;BME280_pressure;Samples;Min_cycle;Max_cycle;Signal;HPM_P1;HPM_P2
2024/01/19 00:01:29;;;;;;;;;;;-1.90;100.00;;;;;;5045353;28;19929;-68
2024/01/19 00:03:58;;;;;;;;;;;-1.90;100.00;;;;;;5043381;28;19929;-68
2024/01/19 00:06:25;;;;;;;;;;;-1.90;100.00;;;;;;5044058;28;20413;-68
2024/01/19 00:08:51;;;;;;;;;;;-2.00;100.00;;;;;;5046872;28;19950;-68
2024/01/19 00:11:18;;;;;;;;;;;-2.00;100.00;;;;;;5041297;28;19936;-68
2024/01/19 00:13:45;;;;;;;;;;;-2.00;100.00;;;;;;5040503;28;19940;-67
2024/01/19 00:16:12;;;;;;;;;;;-2.00;100.00;;;;;;5046261;28;20002;-68
2024/01/19 00:18:39;;;;;;;;;;;-2.00;100.00;;;;;;5047104;28;19947;-68
2024/01/19 00:21:05;;;;;;;;;;;-2.00;100.00;;;;;;5047035;28;19933;-68
2024/01/19 00:23:32;;;;;;;;;;;-1.90;100.00;;;;;;5046989;28;19928;-68
2024/01/19 00:25:59;;;;;;;;;;;-1.90;100.00;;;;;;5046896;28;20023;-68
2024/01/19 00:28:26;;;;;;;;;;;-1.90;100.00;;;;;;5046598;28;19952;-67
2024/01/19 00:30:53;;;;;;;;;;;-1.90;100.00;;;;;;5046190;28;19929;-68
2024/01/19 00:33:20;;;;;;;;;;;-1.80;100.00;;;;;;5047013;28;19928;-67
2024/01/19 00:35:47;;;;;;;;;;;-1.80;100.00;;;;;;5046523;28;20659;-68
2024/01/19 00:38:13;;;;;;;;;;;-1.80;100.00;;;;;;5045321;28;19936;-68
2024/01/19 00:40:40;;;;;;;;;;;-1.70;100.00;;;;;;5046541;28;20042;-68
2024/01/19 00:43:08;;;;;;;;;;;-1.70;100.00;;;;;;5036548;28;20773;-68
2024/01/19 00:45:35;;;;;;;;;;;-1.80;100.00;;;;;;5040636;28;20652;-68
2024/01/19 00:48:02;;;;;;;;;;;-1.80;100.00;;;;;;5042830;28;20331;-68
2024/01/19 00:50:29;;;;;;;;;;;-1.80;100.00;;;;;;5043863;28;19929;-68
2024/01/19 00:52:56;;;;;;;;;;;-1.80;100.00;;;;;;5045612;28;19941;-68
2024/01/19 00:55:23;;;;;;;;;;;-1.80;100.00;;;;;;5046708;28;20060;-68
2024/01/19 00:57:50;;;;;;;;;;;-1.80;100.00;;;;;;5039160;28;20296;-68
2024/01/19 01:00:17;;;;;;;;;;;-1.80;100.00;;;;;;5046446;28;19928;-68
2024/01/19 01:02:43;;;;;;;;;;;-1.90;100.00;;;;;;5046804;28;20523;-67
2024/01/19 01:05:11;;;;;;;;;;;-1.90;100.00;;;;;;5045517;28;20325;-68
2024/01/19 01:07:39;;;;;;;;;;;-2.00;100.00;;;;;;5045196;28;19929;-68
2024/01/19 01:10:06;;;;;;;;;;;-2.00;100.00;;;;;;5044870;28;19940;-68
2024/01/19 01:12:33;;;;;;;;;;;-2.00;100.00;;;;;;5040730;28;20648;-68
2024/01/19 01:14:59;;;;;;;;;;;-2.10;100.00;;;;;;5041776;28;19975;-68
2024/01/19 01:17:26;;;;;;;;;;;-2.10;100.00;;;;;;5039132;28;20281;-68
2024/01/19 01:19:53;;;;;;;;;;;-2.20;100.00;;;;;;5045656;28;19928;-68
2024/01/19 01:22:20;;;;;;;;;;;-2.20;100.00;;;;;;5046034;28;20009;-68
2024/01/19 01:24:47;;;;;;;;;;;-2.20;100.00;;;;;;5037896;28;19984;-68
2024/01/19 01:27:13;;;;;;;;;;;-2.20;100.00;;;;;;5044216;28;20002;-68
2024/01/19 01:29:40;;;;;;;;;;;-2.20;100.00;;;;;;5035831;28;20008;-68
2024/01/19 01:32:07;;;;;;;;;;;-2.20;100.00;;;;;;5042975;28;19928;-68
2024/01/19 01:34:34;;;;;;;;;;;-2.20;100.00;;;;;;5046197;28;19925;-68
2024/01/19 01:37:00;;;;;;;;;;;-2.30;100.00;;;;;;5039369;28;19936;-67
2024/01/19 01:39:27;;;;;;;;;;;-2.30;100.00;;;;;;5045278;28;19935;-68
2024/01/19 01:41:54;;;;;;;;;;;-2.20;100.00;;;;;;5045773;28;20636;-68
2024/01/19 01:44:21;;;;;;;;;;;-2.20;100.00;;;;;;5046047;28;19929;-67
2024/01/19 01:46:48;;;;;;;;;;;-2.20;100.00;;;;;;5040145;28;19955;-67
2024/01/19 01:49:15;;;;;;;;;;;-2.20;100.00;;;;;;5046062;28;19936;-68
2024/01/19 01:51:44;;;;;;;;;;;-2.10;100.00;;;;;;5039473;28;20020;-68
2024/01/19 01:54:12;;;;;;;;;;;-2.10;100.00;;;;;;5045029;28;19970;-68
2024/01/19 01:56:40;;;;;;;;;;;-2.00;100.00;;;;;;5036257;28;19990;-68
2024/01/19 01:59:08;;;;;;;;;;;-2.00;100.00;;;;;;5043546;28;19925;-68
2024/01/19 02:01:35;;;;;;;;;;;-1.90;100.00;;;;;;5042925;28;20608;-68
2024/01/19 02:04:02;;;;;;;;;;;-1.90;100.00;;;;;;5045473;28;19976;-68
2024/01/19 02:06:29;;;;;;;;;;;-1.80;100.00;;;;;;5044685;28;19990;-68
2024/01/19 02:08:56;;;;;;;;;;;-1.80;100.00;;;;;;5036218;28;19933;-68
2024/01/19 02:11:23;;;;;;;;;;;-1.80;100.00;;;;;;5040753;28;19969;-68
2024/01/19 02:13:50;;;;;;;;;;;-1.80;100.00;;;;;;5040965;28;19928;-68
2024/01/19 02:16:16;;;;;;;;;;;-1.80;100.00;;;;;;5038298;28;19937;-68
2024/01/19 02:18:43;;;;;;;;;;;-1.80;100.00;;;;;;5074826;28;19986;-68
2024/01/19 02:21:10;;;;;;;;;;;-1.70;100.00;;;;;;5044547;28;19928;-68
2024/01/19 02:23:41;;;;;;;;;;;-1.70;100.00;;;;;;5042752;28;19928;-68
2024/01/19 02:26:08;;;;;;;;;;;-1.60;100.00;;;;;;5038284;28;20289;-68
2024/01/19 02:28:35;;;;;;;;;;;-1.60;100.00;;;;;;5043819;28;20297;-68
2024/01/19 02:31:02;;;;;;;;;;;-1.60;100.00;;;;;;5042685;28;20804;-69
2024/01/19 02:33:28;;;;;;;;;;;-1.60;100.00;;;;;;5043059;28;19999;-70
2024/01/19 02:35:55;;;;;;;;;;;-1.60;100.00;;;;;;5045643;28;19936;-70
2024/01/19 02:38:22;;;;;;;;;;;-1.60;100.00;;;;;;5039165;28;19929;-70
2024/01/19 02:40:49;;;;;;;;;;;-1.60;100.00;;;;;;5039865;28;19929;-70
2024/01/19 02:43:15;;;;;;;;;;;-1.60;100.00;;;;;;5045367;28;19939;-70
2024/01/19 02:45:42;;;;;;;;;;;-1.60;100.00;;;;;;5044263;28;19929;-70
2024/01/19 02:48:12;;;;;;;;;;;-1.60;100.00;;;;;;5041996;28;19998;-70
2024/01/19 02:50:38;;;;;;;;;;;-1.60;100.00;;;;;;5038751;28;19948;-70
2024/01/19 02:53:05;;;;;;;;;;;-1.50;100.00;;;;;;5043061;28;19979;-71
2024/01/19 02:55:32;;;;;;;;;;;-1.50;100.00;;;;;;5043116;28;19982;-70
2024/01/19 02:57:59;;;;;;;;;;;-1.60;100.00;;;;;;5041474;28;19929;-70
2024/01/19 03:00:25;;;;;;;;;;;-1.60;100.00;;;;;;5044570;28;19928;-70
2024/01/19 03:02:52;;;;;;;;;;;-1.70;100.00;;;;;;5045017;28;19940;-70
2024/01/19 03:05:19;;;;;;;;;;;-1.70;100.00;;;;;;5042601;28;19933;-70
2024/01/19 03:07:46;;;;;;;;;;;-1.70;100.00;;;;;;5040116;28;19928;-71
2024/01/19 03:10:13;;;;;;;;;;;-1.70;100.00;;;;;;5045750;28;19971;-70
2024/01/19 03:12:39;;;;;;;;;;;-1.70;100.00;;;;;;5045293;28;19971;-70
2024/01/19 03:15:06;;;;;;;;;;;-1.80;100.00;;;;;;5044708;28;19933;-71
2024/01/19 03:17:33;;;;;;;;;;;-1.80;100.00;;;;;;5046444;28;19929;-70
2024/01/19 03:20:00;;;;;;;;;;;-1.90;100.00;;;;;;5044086;28;19929;-70
2024/01/19 03:22:28;;;;;;;;;;;-1.90;100.00;;;;;;5046546;28;19932;-70
2024/01/19 03:24:55;;;;;;;;;;;-1.90;100.00;;;;;;5041332;28;20007;-70
2024/01/19 03:27:21;;;;;;;;;;;-2.00;100.00;;;;;;5046876;28;19929;-70
2024/01/19 03:29:48;;;;;;;;;;;-2.00;100.00;;;;;;5045142;28;19933;-70
2024/01/19 03:32:15;;;;;;;;;;;-2.10;100.00;;;;;;5049708;28;19944;-70
2024/01/19 03:34:42;;;;;;;;;;;-2.10;100.00;;;;;;5048037;28;19929;-70
2024/01/19 03:37:09;;;;;;;;;;;-2.10;100.00;;;;;;5042953;28;19980;-70
2024/01/19 03:39:35;;;;;;;;;;;-2.10;100.00;;;;;;5046905;28;19974;-70
2024/01/19 03:42:02;;;;;;;;;;;-2.10;100.00;;;;;;5040143;28;20463;-70
2024/01/19 03:44:29;;;;;;;;;;;-2.10;100.00;;;;;;5075478;28;20252;-70
2024/01/19 03:46:56;;;;;;;;;;;-2.00;100.00;;;;;;5045370;28;20455;-70
2024/01/19 03:49:23;;;;;;;;;;;-2.00;100.00;;;;;;5048328;28;20015;-70
2024/01/19 03:51:59;;;;;;;;;;;-2.00;100.00;;;;;;5046748;28;19932;-70
2024/01/19 03:54:27;;;;;;;;;;;-2.00;100.00;;;;;;5043186;28;19929;-70
2024/01/19 03:56:54;;;;;;;;;;;-2.00;100.00;;;;;;5035302;28;19983;-70
2024/01/19 03:59:21;;;;;;;;;;;-2.00;100.00;;;;;;5046233;28;20027;-70
2024/01/19 04:01:48;;;;;;;;;;;-1.90;100.00;;;;;;5044164;28;19928;-70
2024/01/19 04:04:14;;;;;;;;;;;-1.90;100.00;;;;;;5044851;28;19982;-70
2024/01/19 04:06:41;;;;;;;;;;;-1.90;100.00;;;;;;5046197;28;20037;-70
2024/01/19 04:09:08;;;;;;;;;;;-1.80;100.00;;;;;;5033662;28;19928;-70
2024/01/19 04:11:36;;;;;;;;;;;-1.70;100.00;;;;;;5047617;28;20404;-70
2024/01/19 04:14:03;;;;;;;;;;;-1.70;100.00;;;;;;5046393;28;20557;-70
2024/01/19 04:16:30;;;;;;;;;;;-1.60;100.00;;;;;;5041838;28;19929;-70
2024/01/19 04:18:57;;;;;;;;;;;-1.60;100.00;;;;;;5044292;28;19932;-70
2024/01/19 04:21:24;;;;;;;;;;;-1.60;100.00;;;;;;5047240;28;19933;-70
2024/01/19 04:23:51;;;;;;;;;;;-1.70;100.00;;;;;;5048783;28;19929;-68
2024/01/19 04:26:17;;;;;;;;;;;-1.70;100.00;;;;;;5046721;28;19937;-68
2024/01/19 04:28:44;;;;;;;;;;;-1.70;100.00;;;;;;5040297;28;19929;-68
2024/01/19 04:31:11;;;;;;;;;;;-1.70;100.00;;;;;;5036727;28;19968;-68
2024/01/19 04:33:38;;;;;;;;;;;-1.80;100.00;;;;;;5047468;28;20056;-67
2024/01/19 04:36:05;;;;;;;;;;;-1.80;100.00;;;;;;5049544;23;19939;-69
2024/01/19 04:38:32;;;;;;;;;;;-1.80;100.00;;;;;;5045890;28;20623;-70
2024/01/19 04:40:59;;;;;;;;;;;-1.80;100.00;;;;;;5042254;28;19925;-70
2024/01/19 04:43:26;;;;;;;;;;;-1.80;100.00;;;;;;5040186;28;19991;-70
2024/01/19 04:45:54;;;;;;;;;;;-1.80;100.00;;;;;;5048313;28;19937;-70
2024/01/19 04:48:20;;;;;;;;;;;-1.70;100.00;;;;;;5045762;28;19929;-70
2024/01/19 04:50:47;;;;;;;;;;;-1.70;100.00;;;;;;5046541;28;20623;-70
2024/01/19 04:53:14;;;;;;;;;;;-1.70;100.00;;;;;;5044813;28;19928;-71
2024/01/19 04:55:41;;;;;;;;;;;-1.60;100.00;;;;;;5033772;28;20400;-70
2024/01/19 04:58:07;;;;;;;;;;;-1.60;100.00;;;;;;5042866;28;19928;-70
2024/01/19 05:00:34;;;;;;;;;;;-1.60;100.00;;;;;;5041813;28;19979;-70
2024/01/19 05:03:01;;;;;;;;;;;-1.60;100.00;;;;;;5041125;28;20608;-70
2024/01/19 05:05:28;;;;;;;;;;;-1.50;100.00;;;;;;5041205;28;20408;-70
2024/01/19 05:07:55;;;;;;;;;;;-1.50;100.00;;;;;;5045984;28;20031;-70
2024/01/19 05:10:22;;;;;;;;;;;-1.60;100.00;;;;;;5045394;28;19967;-68
2024/01/19 05:12:50;;;;;;;;;;;-1.60;100.00;;;;;;5037584;28;19936;-69
2024/01/19 05:15:17;;;;;;;;;;;-1.60;100.00;;;;;;5042068;28;20270;-70
2024/01/19 05:17:45;;;;;;;;;;;-1.50;100.00;;;;;;5035513;28;19963;-70
2024/01/19 05:20:12;;;;;;;;;;;-1.50;100.00;;;;;;5043407;28;19987;-70
2024/01/19 05:22:38;;;;;;;;;;;-1.50;100.00;;;;;;5037690;28;19983;-70
2024/01/19 05:25:06;;;;;;;;;;;-1.50;100.00;;;;;;5037688;28;20441;-70
2024/01/19 05:27:33;;;;;;;;;;;-1.50;100.00;;;;;;5042174;28;19930;-70
2024/01/19 05:30:00;;;;;;;;;;;-1.40;100.00;;;;;;5041701;28;19960;-68
2024/01/19 05:32:27;;;;;;;;;;;-1.40;100.00;;;;;;5041956;28;19929;-68
2024/01/19 05:34:54;;;;;;;;;;;-1.40;100.00;;;;;;5041714;28;19925;-68
2024/01/19 05:37:21;;;;;;;;;;;-1.40;100.00;;;;;;5038207;28;19929;-68
2024/01/19 05:39:47;;;;;;;;;;;-1.30;100.00;;;;;;5042932;28;19936;-67
2024/01/19 05:42:14;;;;;;;;;;;-1.30;100.00;;;;;;5040692;28;20643;-68
2024/01/19 05:44:41;;;;;;;;;;;-1.30;100.00;;;;;;5043209;28;19935;-68
2024/01/19 05:47:08;;;;;;;;;;;-1.20;100.00;;;;;;5043910;28;19929;-68
2024/01/19 05:49:35;;;;;;;;;;;-1.20;100.00;;;;;;5043058;28;19932;-69
2024/01/19 05:52:02;;;;;;;;;;;-1.10;100.00;;;;;;5039291;28;19939;-70
2024/01/19 05:54:28;;;;;;;;;;;-1.10;100.00;;;;;;5044007;28;19929;-70
2024/01/19 05:56:55;;;;;;;;;;;-1.10;100.00;;;;;;5042376;28;19936;-70
2024/01/19 05:59:22;;;;;;;;;;;-1.10;100.00;;;;;;5045203;28;19955;-70
2024/01/19 06:01:49;;;;;;;;;;;-1.00;100.00;;;;;;5043224;28;19968;-68
2024/01/19 06:04:16;;;;;;;;;;;-1.00;100.00;;;;;;5045146;28;19933;-68
2024/01/19 06:06:43;;;;;;;;;;;-1.00;100.00;;;;;;5042889;28;20073;-67
2024/01/19 06:09:10;;;;;;;;;;;-1.00;100.00;;;;;;5042305;28;19933;-68
2024/01/19 06:11:37;;;;;;;;;;;-1.00;100.00;;;;;;5041622;28;20014;-76
2024/01/19 06:14:04;;;;;;;;;;;-1.00;100.00;;;;;;5075749;28;20007;-66
2024/01/19 06:16:30;;;;;;;;;;;-1.00;100.00;;;;;;5040093;28;19971;-66
2024/01/19 06:18:58;;;;;;;;;;;-0.90;100.00;;;;;;5041379;28;19968;-65
2024/01/19 06:21:25;;;;;;;;;;;-0.90;100.00;;;;;;5041682;28;19935;-66
2024/01/19 06:23:52;;;;;;;;;;;-0.90;100.00;;;;;;5039297;28;19995;-67
2024/01/19 06:26:18;;;;;;;;;;;-0.90;100.00;;;;;;5041781;28;19936;-66
2024/01/19 06:28:45;;;;;;;;;;;-0.80;100.00;;;;;;5041188;28;20392;-67
2024/01/19 06:31:12;;;;;;;;;;;-0.80;100.00;;;;;;5042278;28;20370;-66
2024/01/19 06:33:39;;;;;;;;;;;-0.80;100.00;;;;;;5043239;28;19929;-65
2024/01/19 06:36:11;;;;;;;;;;;-0.80;100.00;;;;;;5038490;28;19932;-66
2024/01/19 06:38:38;;;;;;;;;;;-1.00;100.00;;;;;;5042258;28;19933;-66
2024/01/19 06:41:05;;;;;;;;;;;-1.00;100.00;;;;;;5040737;28;20718;-66
2024/01/19 06:43:32;;;;;;;;;;;-0.90;100.00;;;;;;5041062;28;20436;-66
2024/01/19 06:45:58;;;;;;;;;;;-0.90;100.00;;;;;;5035519;28;19928;-66
2024/01/19 06:48:25;;;;;;;;;;;-0.90;100.00;;;;;;5042240;28;20578;-66
2024/01/19 06:50:52;;;;;;;;;;;-0.80;100.00;;;;;;5035222;28;19929;-66
2024/01/19 06:53:19;;;;;;;;;;;-0.80;100.00;;;;;;5042182;28;20018;-67
2024/01/19 06:55:46;;;;;;;;;;;-0.70;100.00;;;;;;5042624;28;19929;-66
2024/01/19 06:58:13;;;;;;;;;;;-0.70;100.00;;;;;;5047463;28;19932;-66
2024/01/19 07:00:39;;;;;;;;;;;-0.70;100.00;;;;;;5047742;28;19985;-66
2024/01/19 07:03:06;;;;;;;;;;;-0.70;100.00;;;;;;5046717;28;20028;-66
2024/01/19 07:05:33;;;;;;;;;;;-0.60;100.00;;;;;;5045715;28;19929;-66
2024/01/19 07:08:00;;;;;;;;;;;-0.60;100.00;;;;;;5046026;28;20409;-66
2024/01/19 07:10:26;;;;;;;;;;;-0.60;100.00;;;;;;5044694;28;19966;-66
2024/01/19 07:12:53;;;;;;;;;;;-0.60;100.00;;;;;;5043596;28;19967;-67
2024/01/19 07:15:20;;;;;;;;;;;-0.60;100.00;;;;;;5049466;28;20344;-66
2024/01/19 07:17:47;;;;;;;;;;;-0.60;100.00;;;;;;5048077;28;20000;-67
2024/01/19 07:20:14;;;;;;;;;;;-0.70;100.00;;;;;;5047130;28;20017;-67
2024/01/19 07:22:40;;;;;;;;;;;-0.80;100.00;;;;;;5047879;28;20382;-66
2024/01/19 07:25:08;;;;;;;;;;;-0.80;100.00;;;;;;5047720;28;20022;-71
2024/01/19 07:27:35;;;;;;;;;;;-0.80;100.00;;;;;;5045923;28;19929;-71
2024/01/19 07:30:03;;;;;;;;;;;-0.90;100.00;;;;;;5047752;28;19929;-71
2024/01/19 07:32:31;;;;;;;;;;;-0.90;100.00;;;;;;5045902;28;20648;-72
2024/01/19 07:35:12;;;;;;;;;;;-0.90;100.00;;;;;;5046739;28;19964;-71
2024/01/19 07:37:41;;;;;;;;;;;-0.90;100.00;;;;;;5047697;28;19933;-71
2024/01/19 07:40:08;;;;;;;;;;;-0.80;100.00;;;;;;5043509;28;20017;-70
2024/01/19 07:42:34;;;;;;;;;;;-0.80;100.00;;;;;;5045904;28;19936;-71
2024/01/19 07:45:01;;;;;;;;;;;-0.80;100.00;;;;;;5044447;28;19933;-71
2024/01/19 07:47:28;;;;;;;;;;;-0.70;100.00;;;;;;5044707;28;19936;-70
2024/01/19 07:49:55;;;;;;;;;;;-0.60;100.00;;;;;;5045135;28;19939;-70
2024/01/19 07:52:22;;;;;;;;;;;-0.60;100.00;;;;;;5046239;28;19929;-70
2024/01/19 07:54:48;;;;;;;;;;;-0.60;100.00;;;;;;5046873;28;19986;-71
2024/01/19 07:57:15;;;;;;;;;;;-0.60;100.00;;;;;;5045444;28;19944;-71
2024/01/19 07:59:43;;;;;;;;;;;-0.60;100.00;;;;;;5044992;28;19942;-70
2024/01/19 08:02:10;;;;;;;;;;;-0.60;100.00;;;;;;5046175;28;19929;-70
2024/01/19 08:04:38;;;;;;;;;;;-0.60;100.00;;;;;;5046612;28;19964;-71
2024/01/19 08:07:05;;;;;;;;;;;-0.50;100.00;;;;;;5045562;28;19928;-70
2024/01/19 08:09:31;;;;;;;;;;;-0.50;100.00;;;;;;5045353;28;19936;-70
2024/01/19 08:11:58;;;;;;;;;;;-0.50;100.00;;;;;;5046616;28;19998;-70
2024/01/19 08:14:25;;;;;;;;;;;-0.50;100.00;;;;;;5047215;28;19929;-70
2024/01/19 08:16:52;;;;;;;;;;;-0.50;100.00;;;;;;5047107;28;19951;-70
2024/01/19 08:19:19;;;;;;;;;;;-0.40;100.00;;;;;;5047237;28;20042;-70
2024/01/19 08:21:46;;;;;;;;;;;-0.40;100.00;;;;;;5046793;28;19971;-71
2024/01/19 08:24:13;;;;;;;;;;;-0.40;100.00;;;;;;5045446;28;19987;-65
2024/01/19 08:26:39;;;;;;;;;;;-0.50;100.00;;;;;;5046148;28;20047;-65
2024/01/19 08:29:06;;;;;;;;;;;-0.50;100.00;;;;;;5046333;28;19933;-65
2024/01/19 08:31:33;;;;;;;;;;;-0.50;100.00;;;;;;5045423;28;19979;-65
2024/01/19 08:34:00;;;;;;;;;;;-0.50;100.00;;;;;;5045270;28;20042;-65
2024/01/19 08:36:26;;;;;;;;;;;-0.50;100.00;;;;;;5042819;28;19932;-65
2024/01/19 08:38:53;;;;;;;;;;;-0.50;100.00;;;;;;5045720;28;19932;-65
2024/01/19 08:41:20;;;;;;;;;;;-0.60;100.00;;;;;;5046434;28;19929;-65
2024/01/19 08:43:47;;;;;;;;;;;-0.60;100.00;;;;;;5043451;28;20383;-65
2024/01/19 08:46:14;;;;;;;;;;;-0.70;100.00;;;;;;5046213;28;19928;-65
2024/01/19 08:48:45;;;;;;;;;;;-0.70;100.00;;;;;;5040208;28;19925;-65
2024/01/19 08:51:17;;;;;;;;;;;-0.60;100.00;;;;;;5041193;28;19932;-70
2024/01/19 08:53:44;;;;;;;;;;;-0.60;100.00;;;;;;5036054;28;19972;-70
2024/01/19 08:56:11;;;;;;;;;;;-0.60;100.00;;;;;;5040463;28;19928;-70
2024/01/19 08:58:38;;;;;;;;;;;-0.50;100.00;;;;;;5039221;28;19979;-70
2024/01/19 09:01:05;;;;;;;;;;;-0.50;100.00;;;;;;5041326;28;19947;-70
2024/01/19 09:03:32;;;;;;;;;;;-0.50;100.00;;;;;;5040170;28;19935;-70
2024/01/19 09:05:59;;;;;;;;;;;-0.50;100.00;;;;;;5042084;28;19947;-70
2024/01/19 09:08:26;;;;;;;;;;;-0.40;100.00;;;;;;5038744;28;19925;-71
2024/01/19 09:10:53;;;;;;;;;;;-0.40;100.00;;;;;;5041101;28;19929;-71
2024/01/19 09:13:19;;;;;;;;;;;-0.40;100.00;;;;;;5039525;28;19925;-70
2024/01/19 09:15:46;;;;;;;;;;;-0.30;100.00;;;;;;5038413;28;19928;-70
2024/01/19 09:18:13;;;;;;;;;;;-0.30;100.00;;;;;;5041096;28;19975;-71
2024/01/19 09:20:40;;;;;;;;;;;-0.20;100.00;;;;;;5038123;28;19940;-70
2024/01/19 09:23:06;;;;;;;;;;;-0.20;100.00;;;;;;5042787;28;19933;-71
2024/01/19 09:25:33;;;;;;;;;;;-0.10;100.00;;;;;;5046000;28;19928;-70
2024/01/19 09:28:01;;;;;;;;;;;0.00;100.00;;;;;;5043238;28;20685;-70
2024/01/19 09:30:28;;;;;;;;;;;0.00;100.00;;;;;;5037130;28;19936;-70
2024/01/19 09:32:55;;;;;;;;;;;0.10;100.00;;;;;;5036939;28;19978;-71
2024/01/19 09:35:21;;;;;;;;;;;0.10;100.00;;;;;;5042860;28;19936;-70
2024/01/19 09:37:48;;;;;;;;;;;0.20;100.00;;;;;;5038049;28;19936;-70
2024/01/19 09:40:16;;;;;;;;;;;0.50;100.00;;;;;;5039320;28;20286;-70
2024/01/19 09:42:43;;;;;;;;;;;0.70;100.00;;;;;;5041008;28;19929;-70
2024/01/19 09:45:17;;;;;;;;;;;0.60;100.00;;;;;;5041426;28;20401;-70
2024/01/19 09:47:47;;;;;;;;;;;0.50;100.00;;;;;;5042874;28;19925;-71
2024/01/19 09:50:17;;;;;;;;;;;0.50;100.00;;;;;;5041319;28;19929;-70
2024/01/19 09:52:50;;;;;;;;;;;0.50;100.00;;;;;;5045287;28;19932;-70
2024/01/19 09:55:18;;;;;;;;;;;0.50;100.00;;;;;;5044393;28;19987;-70
2024/01/19 09:57:48;;;;;;;;;;;0.40;100.00;;;;;;5043937;28;19936;-71
2024/01/19 10:00:17;;;;;;;;;;;0.40;100.00;;;;;;5041925;28;20539;-71
2024/01/19 10:02:53;;;;;;;;;;;0.50;100.00;;;;;;5039337;28;19947;-70
2024/01/19 10:05:21;;;;;;;;;;;0.60;100.00;;;;;;5055506;28;19929;-70
2024/01/19 10:07:49;;;;;;;;;;;0.60;100.00;;;;;;5062249;28;20519;-70
2024/01/19 10:10:16;;;;;;;;;;;0.60;100.00;;;;;;5043982;28;19956;-71
2024/01/19 10:12:43;;;;;;;;;;;0.70;100.00;;;;;;5043818;28;20086;-70
2024/01/19 10:15:14;;;;;;;;;;;0.70;100.00;;;;;;5042086;28;19935;-70
2024/01/19 10:17:42;;;;;;;;;;;0.70;100.00;;;;;;5039365;28;20312;-70
2024/01/19 10:20:13;;;;;;;;;;;0.80;100.00;;;;;;5076340;28;20016;-71
2024/01/19 10:22:40;;;;;;;;;;;0.90;100.00;;;;;;5043465;28;20312;-70
2024/01/19 10:25:09;;;;;;;;;;;1.00;100.00;;;;;;5043236;28;19933;-71
2024/01/19 10:27:40;;;;;;;;;;;1.10;100.00;;;;;;5041391;28;19924;-70
2024/01/19 10:33:35;;;;;;;;;;;1.30;100.00;;;;;;5004410;28;19929;-65
2024/01/19 10:36:02;;;;;;;;;;;1.30;100.00;;;;;;5010399;28;20026;-67
2024/01/19 10:38:29;;;;;;;;;;;1.50;100.00;;;;;;5013474;28;19944;-67
2024/01/19 10:40:56;;;;;;;;;;;1.50;100.00;;;;;;5008680;28;19929;-67
2024/01/19 10:43:23;;;;;;;;;;;1.50;100.00;;;;;;5006624;28;19992;-67
2024/01/19 10:45:49;;;;;;;;;;;1.70;100.00;;;;;;5006522;28;20082;-67
2024/01/19 10:48:25;;;;;;;;;;;1.80;100.00;;;;;;5008381;28;19947;-67
2024/01/19 10:51:00;;;;;;;;;;;1.90;100.00;;;;;;5005995;28;19930;-67
2024/01/19 10:53:27;;;;;;;;;;;2.10;100.00;;;;;;5003823;28;20485;-67
2024/01/19 10:55:54;;;;;;;;;;;2.00;100.00;;;;;;4990871;28;20568;-67
2024/01/19 10:58:21;;;;;;;;;;;2.00;100.00;;;;;;5008481;28;19929;-67
2024/01/19 11:00:48;;;;;;;;;;;2.10;100.00;;;;;;5004076;28;20411;-67
2024/01/19 11:03:15;;;;;;;;;;;2.30;100.00;;;;;;5008427;28;19977;-67
2024/01/19 11:05:45;;;;;;;;;;;2.50;100.00;;;;;;5008388;28;20294;-67
2024/01/19 11:08:12;;;;;;;;;;;2.60;100.00;;;;;;5007457;28;20046;-67
2024/01/19 11:10:39;;;;;;;;;;;2.50;100.00;;;;;;5008345;28;19936;-67
2024/01/19 11:13:08;;;;;;;;;;;2.40;100.00;;;;;;5008122;28;19976;-67
2024/01/19 11:15:38;;;;;;;;;;;2.40;100.00;;;;;;4996539;28;19933;-67
2024/01/19 11:18:05;;;;;;;;;;;2.50;100.00;;;;;;5000241;28;20625;-67
2024/01/19 11:20:33;;;;;;;;;;;2.60;100.00;;;;;;4998695;28;19929;-65
2024/01/19 11:23:01;;;;;;;;;;;2.60;100.00;;;;;;5007954;28;19968;-67
2024/01/19 11:25:46;;;;;;;;;;;2.60;100.00;;;;;;5007443;28;19968;-67
2024/01/19 11:28:20;;;;;;;;;;;2.60;100.00;;;;;;5002235;28;19969;-67
2024/01/19 11:31:05;;;;;;;;;;;2.80;100.00;;;;;;5007732;28;19930;-67
2024/01/19 11:33:32;;;;;;;;;;;3.10;100.00;;;;;;5006845;28;20428;-67
2024/01/19 11:35:59;;;;;;;;;;;3.40;100.00;;;;;;5007704;28;19930;-68
2024/01/19 11:38:38;;;;;;;;;;;3.30;100.00;;;;;;5002382;28;19929;-68
2024/01/19 11:41:05;;;;;;;;;;;3.40;100.00;;;;;;5006253;28;20044;-67
2024/01/19 11:43:36;;;;;;;;;;;3.40;100.00;;;;;;4988929;28;19964;-67
2024/01/19 11:46:03;;;;;;;;;;;3.60;100.00;;;;;;4989922;28;19933;-67
2024/01/19 11:48:44;;;;;;;;;;;3.60;100.00;;;;;;5004888;28;20460;-67
2024/01/19 11:51:31;;;;;;;;;;;3.50;100.00;;;;;;5006693;28;19971;-67
2024/01/19 11:53:58;;;;;;;;;;;3.60;100.00;;;;;;5005122;28;20725;-67
2024/01/19 11:56:26;;;;;;;;;;;3.80;100.00;;;;;;5007108;28;19929;-67
2024/01/19 11:58:55;;;;;;;;;;;3.90;100.00;;;;;;4998241;28;20607;-67
2024/01/19 12:01:22;;;;;;;;;;;3.90;100.00;;;;;;5006812;28;19983;-67
2024/01/19 12:03:53;;;;;;;;;;;3.80;100.00;;;;;;5004517;28;19936;-67
2024/01/19 12:06:20;;;;;;;;;;;3.50;100.00;;;;;;5007383;28;19937;-67
2024/01/19 12:09:00;;;;;;;;;;;3.30;100.00;;;;;;5006712;28;20357;-67
2024/01/19 12:11:27;;;;;;;;;;;3.50;100.00;;;;;;5004820;28;19951;-67
2024/01/19 12:13:54;;;;;;;;;;;4.10;100.00;;;;;;5006079;28;19936;-67
2024/01/19 12:16:31;;;;;;;;;;;4.40;100.00;;;;;;5007489;28;20029;-67
2024/01/19 12:18:58;;;;;;;;;;;4.10;100.00;;;;;;5007144;28;20584;-68
2024/01/19 12:21:25;;;;;;;;;;;3.90;100.00;;;;;;5005030;28;20366;-67
2024/01/19 12:23:53;;;;;;;;;;;4.00;100.00;;;;;;5004384;28;19929;-67
2024/01/19 12:26:23;;;;;;;;;;;4.00;100.00;;;;;;5006505;28;19933;-67
2024/01/19 12:28:51;;;;;;;;;;;4.10;100.00;;;;;;5006835;28;20056;-67
2024/01/19 12:31:22;;;;;;;;;;;4.30;100.00;;;;;;4988942;28;19929;-68
2024/01/19 12:33:49;;;;;;;;;;;4.20;100.00;;;;;;5001842;28;19932;-68
2024/01/19 12:36:17;;;;;;;;;;;4.30;100.00;;;;;;5005688;28;19929;-67
2024/01/19 12:38:44;;;;;;;;;;;4.20;100.00;;;;;;5013877;28;19988;-68
2024/01/19 12:41:14;;;;;;;;;;;4.20;100.00;;;;;;5004054;28;19960;-67
2024/01/19 12:43:41;;;;;;;;;;;4.00;100.00;;;;;;5006785;28;20384;-67
2024/01/19 12:46:09;;;;;;;;;;;4.30;100.00;;;;;;5005986;28;19933;-67
2024/01/19 12:48:36;;;;;;;;;;;4.00;100.00;;;;;;4993445;28;20555;-67
2024/01/19 12:51:04;;;;;;;;;;;3.90;100.00;;;;;;5004387;28;20254;-67
2024/01/19 12:53:32;;;;;;;;;;;3.60;100.00;;;;;;5006489;28;19941;-68
2024/01/19 12:56:18;;;;;;;;;;;3.70;100.00;;;;;;5005768;28;19984;-67
2024/01/19 12:58:47;;;;;;;;;;;4.00;100.00;;;;;;5004057;28;20463;-68
2024/01/19 13:01:15;;;;;;;;;;;3.60;100.00;;;;;;4993407;28;19936;-67
2024/01/19 13:03:42;;;;;;;;;;;3.10;100.00;;;;;;5004475;28;19929;-68
2024/01/19 13:06:09;;;;;;;;;;;2.90;100.00;;;;;;5004578;28;19934;-68
2024/01/19 13:08:36;;;;;;;;;;;2.60;100.00;;;;;;5005477;28;19960;-67
2024/01/19 13:11:07;;;;;;;;;;;2.60;100.00;;;;;;5020500;28;20349;-67
2024/01/19 13:13:35;;;;;;;;;;;2.40;100.00;;;;;;5005924;28;19925;-66
2024/01/19 13:16:08;;;;;;;;;;;2.30;100.00;;;;;;5002989;28;19930;-67
2024/01/19 13:18:35;;;;;;;;;;;2.30;100.00;;;;;;5002862;28;19937;-67
2024/01/19 13:21:09;;;;;;;;;;;2.30;100.00;;;;;;5017943;23;19930;-66
2024/01/19 13:23:36;;;;;;;;;;;2.30;100.00;;;;;;5023506;28;19952;-66
2024/01/19 13:26:03;;;;;;;;;;;2.30;100.00;;;;;;5025710;28;19973;-67
2024/01/19 13:28:30;;;;;;;;;;;2.20;100.00;;;;;;5025052;28;19952;-66
2024/01/19 13:30:57;;;;;;;;;;;2.10;100.00;;;;;;5025314;28;19929;-67
2024/01/19 13:33:24;;;;;;;;;;;2.00;100.00;;;;;;5024920;28;19929;-67
2024/01/19 13:35:51;;;;;;;;;;;1.90;100.00;;;;;;5025615;28;20024;-67
2024/01/19 13:38:19;;;;;;;;;;;1.90;100.00;;;;;;5025248;28;19995;-67
2024/01/19 13:40:50;;;;;;;;;;;1.80;100.00;;;;;;5025460;28;19929;-67
2024/01/19 13:43:17;;;;;;;;;;;1.80;100.00;;;;;;5025358;28;20055;-67
2024/01/19 13:45:44;;;;;;;;;;;1.80;100.00;;;;;;5023905;28;19936;-67
2024/01/19 13:48:10;;;;;;;;;;;1.80;100.00;;;;;;5025667;28;20015;-67
2024/01/19 13:50:37;;;;;;;;;;;1.80;100.00;;;;;;5025519;28;19937;-67
2024/01/19 13:53:04;;;;;;;;;;;1.70;100.00;;;;;;5024896;28;20041;-67
2024/01/19 13:55:31;;;;;;;;;;;1.70;100.00;;;;;;5034309;23;20008;-69
2024/01/19 13:57:58;;;;;;;;;;;1.70;100.00;;;;;;5025077;28;19925;-70
2024/01/19 14:00:25;;;;;;;;;;;1.70;100.00;;;;;;5023863;28;20423;-70
2024/01/19 14:02:51;;;;;;;;;;;1.70;100.00;;;;;;5023843;28;19926;-73
2024/01/19 14:05:19;;;;;;;;;;;1.60;100.00;;;;;;5023700;28;19929;-71
2024/01/19 14:07:46;;;;;;;;;;;1.60;100.00;;;;;;5025182;28;20010;-67
2024/01/19 14:10:13;;;;;;;;;;;1.60;100.00;;;;;;5024150;28;19933;-67
2024/01/19 14:12:40;;;;;;;;;;;1.60;100.00;;;;;;5024068;28;19933;-68
2024/01/19 14:15:07;;;;;;;;;;;1.70;100.00;;;;;;5024223;28;20599;-67